Terminal Aerodrome Forecast
Issued by NWS

Home | Current Version | Previous Version | Text Only | Print | Product List | Glossary On
Versions: 1 2 3 4 5 6 7 8 9 10 11 12 13 14 15 16 17 18 19 20 21 22
000
FTUS43 KIND 040530
TAFHUF
TAF
KHUF 040530Z 0406/0506 24005KT P6SM BKN100
     FM041100 23012KT P6SM SHRA OVC035
     FM041400 28013KT P6SM SHRA OVC020
     FM041600 30014G23KT P6SM VCSH BKN015
     FM041800 33015G24KT P6SM VCSH BKN020
     FM042100 33015G24KT P6SM BKN035
     FM050000 22011G18KT P6SM BKN035
     FM050500 33011G18KT P6SM BKN020=

USA.gov is the U.S. government's official web portal to all federal, state and local government web resources and services.